Time;durP1;ratioP1;P1;durP2;ratioP2;P2;SDS_P1;SDS_P2;PMS_P1;PMS_P2;Temp;Humidity;BMP_temperature;BMP_pressure;BME280_temperature;BME280_humidity;BME280_pressure;Samples;Min_cycle;Max_cycle;Signal;HPM_P1;HPM_P2
2021/01/07 00:00:18;;;;;;;5.33;2.47;;;;;;;4.73;88.33;97321.39;1646489;86;21176;-64
2021/01/07 00:02:48;;;;;;;3.45;2.27;;;;;;;4.71;88.56;97318.58;1646717;86;21196;-65
2021/01/07 00:05:16;;;;;;;3.60;2.30;;;;;;;4.74;88.37;97327.36;1646400;86;21215;-65
2021/01/07 00:07:44;;;;;;;3.27;2.05;;;;;;;4.69;88.62;97329.01;1646285;86;21164;-62
2021/01/07 00:10:13;;;;;;;3.22;2.08;;;;;;;4.64;88.83;97321.30;1646413;86;21183;-63
2021/01/07 00:12:41;;;;;;;3.95;1.98;;;;;;;4.72;88.52;97314.61;1646387;86;21175;-63
2021/01/07 00:15:10;;;;;;;2.33;1.75;;;;;;;4.64;88.92;97321.30;1646411;86;21244;-62
2021/01/07 00:17:38;;;;;;;2.77;2.12;;;;;;;4.60;88.90;97325.87;1646505;86;21196;-63
2021/01/07 00:20:10;;;;;;;5.42;2.08;;;;;;;4.62;88.92;97325.76;1646334;86;21168;-64
2021/01/07 00:22:39;;;;;;;2.58;2.27;;;;;;;4.69;88.55;97321.29;1646384;86;21246;-65
2021/01/07 00:25:08;;;;;;;4.80;1.82;;;;;;;4.72;88.44;97328.76;1646678;86;21984;-65
2021/01/07 00:27:37;;;;;;;3.85;2.10;;;;;;;4.74;88.31;97323.04;1646453;86;21568;-64
2021/01/07 00:30:28;;;;;;;2.10;1.35;;;;;;;4.80;88.18;97328.14;1646567;86;21164;-64
2021/01/07 00:32:56;;;;;;;3.83;2.83;;;;;;;4.84;88.02;97323.56;1652774;85;21230;-66
2021/01/07 00:35:25;;;;;;;6.15;3.10;;;;;;;4.84;87.87;97323.11;1653014;86;21182;-64
2021/01/07 00:37:53;;;;;;;5.25;2.95;;;;;;;4.87;87.63;97324.14;1653045;85;21166;-63
2021/01/07 00:40:21;;;;;;;4.85;2.92;;;;;;;4.87;87.59;97324.14;1652964;87;21583;-65
2021/01/07 00:42:49;;;;;;;2.95;2.55;;;;;;;4.90;87.52;97321.34;1652943;86;21560;-64
2021/01/07 00:45:18;;;;;;;4.10;2.70;;;;;;;4.94;87.49;97329.13;1652753;85;21175;-65
2021/01/07 00:47:46;;;;;;;5.10;3.22;;;;;;;4.90;87.75;97325.67;1652922;86;21218;-62
2021/01/07 00:50:15;;;;;;;5.03;2.72;;;;;;;4.91;87.51;97318.27;1653060;86;21187;-64
2021/01/07 00:52:43;;;;;;;2.37;1.75;;;;;;;4.82;88.12;97310.03;1652877;85;21181;-62
2021/01/07 00:55:16;;;;;;;3.65;2.00;;;;;;;4.77;88.00;97302.20;1653159;86;21166;-62
2021/01/07 00:57:45;;;;;;;4.10;2.20;;;;;;;4.70;88.32;97300.25;1652888;85;21162;-65
2021/01/07 01:00:18;;;;;;;6.50;1.92;;;;;;;4.67;88.37;97301.30;1652804;86;21165;-65
2021/01/07 01:02:46;;;;;;;4.47;2.60;;;;;;;4.66;88.35;97298.86;1652811;86;21147;-63
2021/01/07 01:05:14;;;;;;;4.20;3.17;;;;;;;4.63;88.75;97297.83;1652966;86;21147;-62
2021/01/07 01:07:44;;;;;;;2.90;2.05;;;;;;;4.57;88.92;97296.55;1652829;86;21178;-64
2021/01/07 01:10:33;;;;;;;5.35;2.80;;;;;;;4.55;88.98;97290.69;1653089;86;21210;-65
2021/01/07 01:13:01;;;;;;;4.15;2.50;;;;;;;4.50;89.19;97283.83;1626017;87;21151;-65
2021/01/07 01:15:31;;;;;;;6.87;2.30;;;;;;;4.50;89.34;97281.27;1586600;90;21198;-64
2021/01/07 01:17:59;;;;;;;3.90;2.30;;;;;;;4.49;89.36;97277.52;1621852;88;21174;-64
2021/01/07 01:20:28;;;;;;;4.72;2.72;;;;;;;4.50;89.13;97270.16;1626113;87;21198;-65
2021/01/07 01:22:56;;;;;;;4.33;3.15;;;;;;;4.51;88.96;97275.66;1626046;87;21217;-65
2021/01/07 01:25:24;;;;;;;3.80;2.92;;;;;;;4.49;89.12;97264.20;1586534;90;21220;-64
2021/01/07 01:27:52;;;;;;;6.70;3.40;;;;;;;4.49;89.15;97265.95;1621717;88;21199;-64
2021/01/07 01:30:42;;;;;;;3.92;2.62;;;;;;;4.46;89.68;97262.34;1626302;87;21170;-64
2021/01/07 01:33:10;;;;;;;4.75;3.00;;;;;;;4.44;90.05;97261.62;1693963;83;21165;-65
2021/01/07 01:35:38;;;;;;;5.15;2.67;;;;;;;4.41;90.18;97260.13;1694375;84;21359;-64
2021/01/07 01:38:06;;;;;;;3.12;2.37;;;;;;;4.43;90.03;97260.02;1694280;83;21204;-64
2021/01/07 01:40:36;;;;;;;5.25;3.10;;;;;;;4.41;90.20;97256.73;1694350;83;21692;-64
2021/01/07 01:43:04;;;;;;;5.80;2.72;;;;;;;4.40;90.01;97255.13;1694236;84;21180;-63
2021/01/07 01:45:39;;;;;;;3.52;2.12;;;;;;;4.36;90.25;97246.02;1694218;83;21177;-64
2021/01/07 01:48:09;;;;;;;3.58;2.47;;;;;;;4.34;90.48;97257.70;1694398;83;21268;-63
2021/01/07 01:50:38;;;;;;;10.40;2.60;;;;;;;4.35;90.43;97258.52;1694134;85;21641;-64
2021/01/07 01:53:05;;;;;;;3.77;2.17;;;;;;;4.35;90.13;97258.06;1694389;84;21626;-63
2021/01/07 01:55:33;;;;;;;6.75;2.90;;;;;;;4.39;89.91;97258.63;1694489;83;21303;-63
2021/01/07 01:58:03;;;;;;;5.25;2.67;;;;;;;4.38;90.31;97255.70;1694246;83;21575;-63
2021/01/07 02:00:32;;;;;;;4.92;2.45;;;;;;;4.37;90.16;97252.31;1694261;83;21172;-63
2021/01/07 02:03:00;;;;;;;4.90;2.80;;;;;;;4.38;90.08;97248.81;1694433;84;21348;-63
2021/01/07 02:05:27;;;;;;;4.87;2.37;;;;;;;4.40;89.93;97250.77;1694148;84;21587;-63
2021/01/07 02:07:56;;;;;;;5.87;3.08;;;;;;;4.43;89.74;97249.73;1694301;84;21162;-63
2021/01/07 02:10:26;;;;;;;2.90;2.15;;;;;;;4.45;89.57;97238.84;1694228;83;21157;-67
2021/01/07 02:12:55;;;;;;;2.60;1.77;;;;;;;4.47;89.39;97231.38;1694346;83;21240;-65
2021/01/07 02:15:23;;;;;;;3.22;2.17;;;;;;;4.51;89.28;97223.77;1694208;84;21185;-65
2021/01/07 02:17:52;;;;;;;4.55;1.47;;;;;;;4.55;89.18;97221.77;1694154;84;21151;-66
2021/01/07 02:20:26;;;;;;;3.02;1.92;;;;;;;4.57;89.06;97232.26;1694222;84;21180;-64
2021/01/07 02:22:56;;;;;;;4.33;2.30;;;;;;;4.64;88.97;97232.58;1694143;84;21590;-65
2021/01/07 02:25:26;;;;;;;3.25;1.82;;;;;;;4.70;88.97;97220.52;1693840;83;21590;-65
2021/01/07 02:27:54;;;;;;;3.77;2.92;;;;;;;4.75;88.95;97209.37;1694499;84;21371;-65
2021/01/07 02:30:22;;;;;;;4.10;2.30;;;;;;;4.78;88.87;97219.44;1694269;84;21229;-65
2021/01/07 02:32:51;;;;;;;3.05;2.27;;;;;;;4.79;88.77;97216.72;1707367;82;21292;-65
2021/01/07 02:35:19;;;;;;;4.50;2.40;;;;;;;4.80;88.58;97214.97;1710660;83;21151;-65
2021/01/07 02:37:47;;;;;;;2.75;1.60;;;;;;;4.83;88.62;97213.42;1710345;84;21166;-65
2021/01/07 02:40:16;;;;;;;5.33;2.60;;;;;;;4.87;88.57;97204.52;1710463;83;21360;-65
2021/01/07 02:42:44;;;;;;;3.52;2.52;;;;;;;4.94;88.53;97208.70;1710642;83;21799;-65
2021/01/07 02:45:13;;;;;;;3.22;2.20;;;;;;;5.01;88.45;97212.40;1710796;84;21311;-66
2021/01/07 02:47:41;;;;;;;3.27;2.27;;;;;;;5.03;88.31;97207.93;1710387;83;21296;-63
2021/01/07 02:52:54;;;;;;;4.92;3.05;;;;;;;5.09;88.30;97221.13;1688103;85;21630;-65
2021/01/07 02:55:21;;;;;;;4.58;3.75;;;;;;;5.15;88.01;97217.21;1688399;84;21145;-67
2021/01/07 02:57:50;;;;;;;3.55;2.62;;;;;;;5.15;87.63;97225.75;1688937;85;21542;-69
2021/01/07 03:00:19;;;;;;;4.20;2.42;;;;;;;5.11;87.50;97218.41;1689039;85;21208;-70
2021/01/07 03:02:47;;;;;;;4.10;2.47;;;;;;;5.10;87.61;97220.16;1688481;85;21153;-64
2021/01/07 03:05:16;;;;;;;4.05;2.58;;;;;;;5.09;87.67;97212.59;1688357;84;21149;-68
2021/01/07 03:07:44;;;;;;;5.03;3.33;;;;;;;4.97;88.05;97213.13;1688934;84;21161;-63
2021/01/07 03:10:13;;;;;;;4.40;2.83;;;;;;;5.00;87.99;97206.90;1689276;85;21133;-71
2021/01/07 03:12:42;;;;;;;3.75;2.35;;;;;;;4.98;87.82;97212.16;1689446;85;21300;-67
2021/01/07 03:15:11;;;;;;;3.58;2.33;;;;;;;5.00;87.76;97210.76;1688859;85;21176;-65
2021/01/07 03:17:39;;;;;;;3.67;2.40;;;;;;;5.01;87.69;97205.50;1689163;84;21153;-68
2021/01/07 03:20:15;;;;;;;5.42;3.27;;;;;;;5.04;87.38;97205.23;1689151;84;21152;-65
2021/01/07 03:22:43;;;;;;;4.00;2.70;;;;;;;5.02;87.04;97198.59;1689343;85;21158;-71
2021/01/07 03:25:12;;;;;;;5.33;2.85;;;;;;;4.95;87.01;97194.41;1689276;85;21588;-66
2021/01/07 03:27:41;;;;;;;4.03;2.52;;;;;;;4.98;87.05;97188.22;1689306;84;21197;-66
2021/01/07 03:30:10;;;;;;;4.25;2.85;;;;;;;4.98;87.17;97186.43;1688512;84;21126;-65
2021/01/07 03:32:39;;;;;;;5.60;3.50;;;;;;;4.97;87.15;97182.72;1688288;85;21169;-69
2021/01/07 03:35:10;;;;;;;5.67;2.83;;;;;;;4.93;86.82;97174.91;1688357;85;21142;-63
2021/01/07 03:37:38;;;;;;;5.70;4.00;;;;;;;4.86;87.03;97168.64;1688259;85;21146;-63
2021/01/07 03:40:09;;;;;;;8.08;4.05;;;;;;;4.78;87.17;97168.81;1688164;84;21161;-63
2021/01/07 03:42:37;;;;;;;5.50;3.65;;;;;;;4.76;87.42;97165.53;1688314;84;21205;-65
2021/01/07 03:45:07;;;;;;;7.37;4.53;;;;;;;4.73;87.62;97164.50;1688325;85;21212;-62
2021/01/07 03:47:35;;;;;;;6.25;3.65;;;;;;;4.68;87.96;97165.34;1688186;85;21154;-63
2021/01/07 03:50:05;;;;;;;6.12;4.37;;;;;;;4.65;87.98;97168.64;1688170;84;21542;-63
2021/01/07 03:52:33;;;;;;;6.22;3.30;;;;;;;4.57;88.22;97171.83;1684480;84;21583;-62
2021/01/07 03:55:01;;;;;;;5.90;2.90;;;;;;;4.54;88.22;97183.66;1674360;84;21321;-64
2021/01/07 03:57:28;;;;;;;8.80;3.20;;;;;;;4.51;88.15;97172.81;1674440;85;21234;-62
2021/01/07 03:59:56;;;;;;;6.10;3.15;;;;;;;4.48;87.98;97173.86;1674819;84;21572;-64
2021/01/07 04:02:25;;;;;;;4.50;3.05;;;;;;;4.45;87.95;97178.44;1675060;86;21167;-64
2021/01/07 04:04:52;;;;;;;5.90;3.47;;;;;;;4.41;88.10;97188.61;1674806;85;21171;-69
2021/01/07 04:07:21;;;;;;;6.12;3.20;;;;;;;4.41;87.97;97198.90;1674805;84;21168;-64
2021/01/07 04:09:50;;;;;;;4.87;3.72;;;;;;;4.40;87.88;97204.50;1674452;85;21172;-65
2021/01/07 04:12:18;;;;;;;4.65;2.80;;;;;;;4.38;88.02;97208.14;1674438;84;21163;-64
2021/01/07 04:14:48;;;;;;;6.87;3.58;;;;;;;4.35;88.13;97207.11;1675093;84;21168;-63
2021/01/07 04:17:16;;;;;;;5.22;2.83;;;;;;;4.34;87.86;97212.72;1674454;86;21155;-63
2021/01/07 04:19:44;;;;;;;4.53;2.22;;;;;;;4.32;88.02;97215.86;1674389;85;21376;-65
2021/01/07 04:22:13;;;;;;;5.33;2.35;;;;;;;4.31;87.51;97218.11;1674214;84;21334;-62
2021/01/07 04:24:41;;;;;;;3.87;2.10;;;;;;;4.29;87.44;97212.26;1674671;86;21155;-62
2021/01/07 04:27:08;;;;;;;2.80;1.52;;;;;;;4.27;87.34;97202.12;1674396;86;21184;-62
2021/01/07 04:29:37;;;;;;;3.55;1.95;;;;;;;4.27;87.13;97196.98;1674352;84;21171;-62
2021/01/07 04:32:07;;;;;;;3.12;2.10;;;;;;;4.26;87.32;97187.63;1674309;86;21675;-63
2021/01/07 04:34:34;;;;;;;5.60;2.75;;;;;;;4.26;87.39;97195.80;1674511;84;21206;-65
2021/01/07 04:37:02;;;;;;;5.33;3.00;;;;;;;4.25;87.34;97203.16;1674541;84;21156;-67
2021/01/07 04:39:30;;;;;;;3.60;2.40;;;;;;;4.22;87.42;97205.52;1674611;85;21164;-67
2021/01/07 04:41:59;;;;;;;4.05;2.90;;;;;;;4.21;87.16;97214.16;1674437;86;21171;-69
2021/01/07 04:44:28;;;;;;;5.05;2.47;;;;;;;4.20;87.61;97210.44;1674234;84;21286;-64
2021/01/07 04:46:58;;;;;;;6.12;2.98;;;;;;;4.19;87.71;97221.65;1674387;86;21184;-64
2021/01/07 04:49:28;;;;;;;8.80;3.42;;;;;;;4.19;87.77;97220.36;1674283;84;21282;-64
2021/01/07 04:51:56;;;;;;;5.10;2.50;;;;;;;4.16;88.05;97216.27;1674450;86;21174;-64
2021/01/07 04:54:25;;;;;;;4.72;2.80;;;;;;;4.15;87.98;97215.94;1708166;84;22325;-64
2021/01/07 04:56:54;;;;;;;3.60;1.95;;;;;;;4.15;87.81;97216.41;1708028;84;21125;-64
2021/01/07 04:59:22;;;;;;;4.53;2.30;;;;;;;4.16;87.69;97218.05;1708046;84;21168;-64
2021/01/07 05:01:50;;;;;;;2.62;2.10;;;;;;;4.15;87.54;97218.51;1708240;84;21161;-64
2021/01/07 05:04:18;;;;;;;3.35;2.02;;;;;;;4.16;87.32;97221.41;1708113;83;21144;-64
2021/01/07 05:06:50;;;;;;;3.77;1.90;;;;;;;4.15;87.25;97215.94;1708148;84;22487;-64
2021/01/07 05:09:18;;;;;;;2.77;1.35;;;;;;;4.14;87.43;97215.58;1708053;84;21113;-64
2021/01/07 05:12:07;;;;;;;2.85;1.70;;;;;;;4.15;87.39;97220.26;1707898;83;21605;-65
2021/01/07 05:14:46;;;;;;;2.67;1.40;;;;;;;4.15;87.31;97215.12;1708008;83;21149;-66
2021/01/07 05:17:36;;;;;;;1.55;1.30;;;;;;;4.14;87.11;97206.59;1707976;84;21165;-64
2021/01/07 05:20:13;;;;;;;1.85;1.42;;;;;;;3.89;86.92;97162.41;1679781;84;21604;-64
2021/01/07 05:22:43;;;;;;;1.92;1.35;;;;;;;4.13;86.90;97197.70;1679660;84;21163;-64
2021/01/07 05:25:41;;;;;;;2.10;1.35;;;;;;;3.91;86.82;97165.66;1679678;84;21147;-63
2021/01/07 05:28:09;;;;;;;;;;;;;;;4.14;86.89;97202.73;1682645;85;21336;-62
2021/01/07 05:30:39;;;;;;;2.05;1.25;;;;;;;4.16;86.87;97191.85;1680095;85;20151;-64
2021/01/07 05:33:09;;;;;;;2.85;2.17;;;;;;;4.18;86.94;97196.41;1679823;85;21650;-64
2021/01/07 05:35:37;;;;;;;1.85;1.22;;;;;;;4.22;86.93;97204.23;1679774;85;21182;-65
2021/01/07 05:38:07;;;;;;;1.82;1.35;;;;;;;4.27;86.76;97210.30;1679969;85;21182;-64
2021/01/07 05:40:36;;;;;;;2.22;1.60;;;;;;;4.30;86.77;97211.33;1647184;87;21202;-63
2021/01/07 05:43:08;;;;;;;2.83;1.85;;;;;;;4.35;86.69;97218.22;1646879;87;21588;-65
2021/01/07 05:45:43;;;;;;;3.02;1.90;;;;;;;4.38;86.57;97215.39;1679987;85;21332;-64
2021/01/07 05:48:12;;;;;;;5.72;2.52;;;;;;;4.42;86.53;97206.50;1679810;85;21183;-65
2021/01/07 05:50:41;;;;;;;4.40;2.80;;;;;;;4.42;86.43;97198.78;1680182;85;21249;-65
2021/01/07 05:53:09;;;;;;;3.10;2.37;;;;;;;4.43;86.55;97195.75;1679900;85;21204;-63
2021/01/07 05:55:38;;;;;;;2.92;2.20;;;;;;;4.47;86.59;97200.99;1679737;85;21174;-65
2021/01/07 05:58:07;;;;;;;4.35;2.37;;;;;;;4.50;86.43;97203.31;1679748;85;21178;-64
2021/01/07 06:00:35;;;;;;;5.30;2.47;;;;;;;4.50;86.32;97208.45;1619718;87;21195;-64
2021/01/07 06:03:04;;;;;;;3.52;1.90;;;;;;;4.48;86.45;97200.84;1679758;85;21191;-65
2021/01/07 06:05:32;;;;;;;7.12;1.92;;;;;;;4.47;86.26;97199.70;1680191;85;21186;-64
2021/01/07 06:08:01;;;;;;;2.47;1.90;;;;;;;4.43;85.85;97203.00;1679767;85;21186;-65
2021/01/07 06:10:29;;;;;;;2.05;1.30;;;;;;;4.43;85.76;97215.85;1653077;85;21180;-64
2021/01/07 06:12:58;;;;;;;2.75;1.85;;;;;;;4.49;86.13;97217.09;1679933;85;21288;-65
2021/01/07 06:15:26;;;;;;;2.10;1.45;;;;;;;4.54;86.22;97210.66;1646924;87;21671;-65
2021/01/07 06:17:54;;;;;;;5.05;1.12;;;;;;;4.60;85.92;97213.19;1647224;87;21176;-67
2021/01/07 06:23:04;;;;;;;6.17;2.35;;;;;;;4.64;85.76;97230.82;1695961;84;21579;-66
2021/01/07 06:25:32;;;;;;;3.20;2.10;;;;;;;4.67;85.26;97237.47;1669427;84;21227;-66
2021/01/07 06:28:01;;;;;;;10.40;5.67;;;;;;;4.65;85.30;97242.75;1696640;84;21162;-66
2021/01/07 06:30:33;;;;;;;3.72;2.67;;;;;;;4.66;85.01;97244.86;1696681;84;21146;-66
2021/01/07 06:33:06;;;;;;;10.53;3.95;;;;;;;4.62;84.54;97247.33;1696602;84;21202;-66
2021/01/07 06:35:55;;;;;;;6.67;3.55;;;;;;;4.56;84.33;97255.05;1695871;83;21135;-66
2021/01/07 06:38:27;;;;;;;3.70;2.50;;;;;;;4.50;84.84;97257.30;1625882;86;21582;-66
2021/01/07 06:41:01;;;;;;;4.10;2.17;;;;;;;4.41;85.21;97261.88;1649810;86;21171;-66
2021/01/07 06:43:29;;;;;;;18.70;8.00;;;;;;;4.37;85.33;97260.48;1653938;86;21246;-71
2021/01/07 06:45:57;;;;;;;18.98;8.13;;;;;;;4.30;85.49;97260.16;1615229;87;21739;-66
2021/01/07 06:48:30;;;;;;;17.70;6.60;;;;;;;4.25;85.74;97265.66;1638261;87;21167;-66
2021/01/07 06:51:01;;;;;;;5.33;2.67;;;;;;;4.22;85.67;97272.33;1638288;87;21159;-65
2021/01/07 06:53:36;;;;;;;3.58;2.08;;;;;;;4.21;85.89;97267.30;1638261;87;22312;-66
2021/01/07 06:56:22;;;;;;;9.83;6.47;;;;;;;4.19;85.91;97273.87;1638582;87;21564;-64
2021/01/07 06:58:51;;;;;;;15.45;7.70;;;;;;;4.13;86.63;97276.89;1638245;87;21136;-65
2021/01/07 07:01:19;;;;;;;6.72;4.35;;;;;;;4.11;87.94;97285.67;1612930;87;21163;-67
2021/01/07 07:03:51;;;;;;;7.92;4.42;;;;;;;4.08;88.49;97288.02;1638438;87;21191;-65
2021/01/07 07:06:25;;;;;;;5.25;2.87;;;;;;;4.06;87.91;97297.58;1638111;87;21171;-65
2021/01/07 07:08:53;;;;;;;4.78;2.72;;;;;;;4.00;87.98;97297.25;1634288;87;21641;-65
2021/01/07 07:11:34;;;;;;;6.20;2.77;;;;;;;3.96;88.16;97288.97;1634121;87;21196;-65
2021/01/07 07:14:08;;;;;;;4.47;2.40;;;;;;;3.91;87.83;97285.10;1634147;87;21189;-64
2021/01/07 07:16:37;;;;;;;7.33;4.12;;;;;;;3.87;88.02;97294.80;1634143;87;21196;-64
2021/01/07 07:19:08;;;;;;;7.37;3.33;;;;;;;3.86;88.12;97303.43;1634471;87;21204;-66
2021/01/07 07:21:37;;;;;;;3.50;1.87;;;;;;;3.83;88.03;97312.66;1634812;87;21236;-66
2021/01/07 07:24:09;;;;;;;5.03;2.70;;;;;;;3.87;87.85;97315.81;1636344;87;21156;-66
2021/01/07 07:26:42;;;;;;;3.90;1.87;;;;;;;3.89;87.68;97323.73;1636508;87;21204;-66
2021/01/07 07:29:15;;;;;;;4.30;2.60;;;;;;;3.92;87.36;97325.27;1637530;87;21180;-65
2021/01/07 07:31:47;;;;;;;8.43;4.17;;;;;;;3.91;87.25;97312.89;1613109;87;21224;-65
2021/01/07 07:34:23;;;;;;;21.60;11.22;;;;;;;3.91;87.20;97318.03;1638578;87;21105;-64
2021/01/07 07:36:51;;;;;;;16.55;7.40;;;;;;;3.90;87.15;97327.95;1632497;87;21149;-63
2021/01/07 07:39:24;;;;;;;4.45;2.42;;;;;;;3.89;87.14;97328.88;1624655;88;21159;-64
2021/01/07 07:42:10;;;;;;;4.75;2.75;;;;;;;3.86;87.46;97331.68;1624490;88;21177;-64
2021/01/07 07:44:39;;;;;;;5.83;2.55;;;;;;;3.84;87.30;97327.14;1625057;88;21231;-64
2021/01/07 07:47:07;;;;;;;3.02;1.67;;;;;;;3.79;87.18;97327.48;1624546;88;21613;-64
2021/01/07 07:49:36;;;;;;;2.27;1.55;;;;;;;3.81;87.19;97332.02;1618837;88;21197;-64
2021/01/07 07:52:04;;;;;;;6.05;1.75;;;;;;;3.85;87.24;97340.81;1616102;88;21299;-63
2021/01/07 07:54:34;;;;;;;3.30;2.08;;;;;;;3.87;87.07;97328.19;1616210;88;21678;-64
2021/01/07 07:57:02;;;;;;;4.83;2.00;;;;;;;3.89;87.29;97333.22;1615945;88;21567;-64
2021/01/07 07:59:32;;;;;;;5.00;2.70;;;;;;;3.91;87.27;97341.15;1615293;89;21658;-63
2021/01/07 08:04:44;;;;;;;2.22;1.67;;;;;;;4.06;86.98;97330.98;1648813;86;21186;-64
2021/01/07 08:07:12;;;;;;;4.80;1.82;;;;;;;4.14;87.01;97337.64;1603305;89;21267;-64
2021/01/07 08:09:41;;;;;;;6.62;3.45;;;;;;;4.22;87.14;97331.91;1587508;90;21208;-65
2021/01/07 08:12:11;;;;;;;3.12;2.05;;;;;;;4.26;87.55;97334.13;1587760;90;21570;-64
2021/01/07 08:14:40;;;;;;;3.62;2.27;;;;;;;4.36;87.39;97339.84;1601638;88;21267;-64
2021/01/07 08:17:08;;;;;;;2.22;1.35;;;;;;;4.45;85.36;97341.68;1611874;88;21198;-64
2021/01/07 08:19:37;;;;;;;2.77;1.65;;;;;;;4.50;85.94;97348.11;1611973;88;21318;-64
2021/01/07 08:22:05;;;;;;;3.75;2.40;;;;;;;4.56;86.11;97348.08;1611745;88;21159;-64
2021/01/07 08:24:33;;;;;;;3.42;1.90;;;;;;;4.65;86.33;97352.52;1612155;88;21269;-65
2021/01/07 08:27:16;;;;;;;3.55;1.95;;;;;;;4.81;86.11;97353.41;1611771;87;21187;-64
2021/01/07 08:29:51;;;;;;;5.47;1.85;;;;;;;4.89;85.55;97345.89;1611848;88;21199;-64
2021/01/07 08:32:22;;;;;;;4.03;2.62;;;;;;;5.06;84.54;97345.34;1618818;87;21550;-64
2021/01/07 08:34:52;;;;;;;7.10;3.45;;;;;;;5.23;83.81;97340.95;1618756;86;21186;-65
2021/01/07 08:37:24;;;;;;;5.70;3.33;;;;;;;5.57;83.73;97350.58;1619846;86;21166;-64
2021/01/07 08:39:52;;;;;;;4.70;2.17;;;;;;;5.73;80.50;97350.95;1628145;87;21166;-65
2021/01/07 08:42:20;;;;;;;3.50;2.75;;;;;;;6.13;79.14;97355.73;1639584;85;21583;-65
2021/01/07 08:44:55;;;;;;;3.62;2.35;;;;;;;6.46;78.94;97356.39;1664740;84;21186;-70
2021/01/07 08:47:24;;;;;;;4.40;2.60;;;;;;;6.64;77.07;97352.21;1660703;84;21157;-69
2021/01/07 08:50:28;;;;;;;13.85;6.60;;;;;;;6.86;76.51;97346.80;1660059;85;21199;-65
2021/01/07 08:52:56;;;;;;;9.03;5.72;;;;;;;7.05;75.83;97340.36;1633348;86;21196;-68
2021/01/07 08:55:52;;;;;;;2.35;1.70;;;;;;;7.07;74.92;97347.98;1620061;88;21196;-65
2021/01/07 08:58:23;;;;;;;3.60;2.10;;;;;;;7.04;74.86;97338.72;1620185;87;21197;-64
2021/01/07 09:00:54;;;;;;;2.85;1.72;;;;;;;7.24;73.31;97338.23;1582978;91;21243;-64
2021/01/07 09:03:22;;;;;;;4.25;2.75;;;;;;;7.42;72.96;97334.50;1578377;89;21239;-64
2021/01/07 09:06:07;;;;;;;3.92;2.67;;;;;;;7.62;73.10;97331.75;1638450;86;21632;-64
2021/01/07 09:08:35;;;;;;;5.20;2.70;;;;;;;7.73;73.73;97335.94;1591998;89;21679;-65
2021/01/07 09:11:08;;;;;;;5.12;2.70;;;;;;;7.70;72.29;97332.34;1598767;88;21211;-64
2021/01/07 09:13:36;;;;;;;3.22;2.40;;;;;;;7.63;72.98;97329.95;1621782;87;21207;-65
2021/01/07 09:16:16;;;;;;;2.55;1.92;;;;;;;7.71;72.04;97330.08;1615011;88;21240;-64
2021/01/07 09:18:43;;;;;;;2.83;1.70;;;;;;;7.92;70.30;97328.13;1615144;87;21151;-64
2021/01/07 09:21:15;;;;;;;2.72;1.85;;;;;;;7.93;69.64;97328.94;1610217;88;21203;-65
2021/01/07 09:23:47;;;;;;;2.45;2.00;;;;;;;7.97;70.07;97328.52;1600059;89;21247;-65
2021/01/07 09:26:30;;;;;;;6.65;3.02;;;;;;;8.19;70.64;97329.09;1587928;89;21247;-64
2021/01/07 09:28:59;;;;;;;5.17;3.22;;;;;;;8.32;70.09;97327.03;1588702;89;21696;-65
2021/01/07 09:31:36;;;;;;;2.75;2.02;;;;;;;8.32;70.02;97320.56;1611514;89;21601;-64
2021/01/07 09:34:05;;;;;;;3.15;2.47;;;;;;;8.60;69.67;97314.89;1638766;87;21196;-64
2021/01/07 09:36:33;;;;;;;2.90;1.92;;;;;;;8.78;67.13;97317.02;1649607;86;21202;-64
2021/01/07 09:39:03;;;;;;;4.92;1.77;;;;;;;8.86;66.94;97319.20;1656729;86;21222;-65
2021/01/07 09:41:31;;;;;;;3.15;1.57;;;;;;;8.79;66.64;97314.77;1607231;89;21668;-65
2021/01/07 09:44:01;;;;;;;2.52;1.35;;;;;;;8.77;67.87;97316.20;1605119;87;21144;-65
2021/01/07 09:46:29;;;;;;;3.05;2.10;;;;;;;8.79;67.06;97318.65;1611951;87;21641;-65
2021/01/07 09:56:21;;;;;;;3.75;2.20;;;;;;;8.61;68.59;97325.08;1681330;85;21226;-65
2021/01/07 09:58:49;;;;;;;3.90;1.98;;;;;;;8.47;68.61;97324.30;1639448;86;21175;-66
2021/01/07 10:01:20;;;;;;;3.50;2.02;;;;;;;8.41;68.76;97321.80;1665244;84;21163;-65
2021/01/07 10:03:48;;;;;;;5.65;2.83;;;;;;;8.13;69.80;97328.70;1678209;84;21256;-65
2021/01/07 10:06:16;;;;;;;2.72;1.92;;;;;;;8.09;70.89;97317.52;1683067;84;21271;-65
2021/01/07 10:08:44;;;;;;;3.75;2.40;;;;;;;8.00;70.13;97319.66;1697554;83;21196;-65
2021/01/07 10:11:13;;;;;;;3.10;2.17;;;;;;;7.95;69.58;97316.67;1654409;86;21215;-65
2021/01/07 10:13:42;;;;;;;5.30;2.08;;;;;;;7.91;69.27;97323.08;1657647;86;21627;-64
2021/01/07 10:16:13;;;;;;;4.40;2.00;;;;;;;7.67;69.79;97322.27;1687922;83;21633;-65
2021/01/07 10:18:42;;;;;;;3.25;1.17;;;;;;;7.77;69.53;97320.96;1675507;84;21178;-65
2021/01/07 10:21:15;;;;;;;4.45;2.98;;;;;;;7.70;69.73;97327.17;1679525;84;21157;-65
2021/01/07 10:23:45;;;;;;;4.45;1.98;;;;;;;7.52;68.78;97323.19;1682136;84;21136;-65
2021/01/07 10:26:18;;;;;;;2.08;1.05;;;;;;;7.53;69.87;97320.13;1653902;86;21181;-65
2021/01/07 10:28:49;;;;;;;1.65;1.00;;;;;;;7.30;69.83;97318.34;1653666;87;21316;-65
2021/01/07 10:31:19;;;;;;;2.12;1.57;;;;;;;7.20;70.20;97321.89;1667019;84;21562;-65
2021/01/07 10:33:47;;;;;;;3.20;1.65;;;;;;;7.21;70.18;97326.91;1687748;83;21183;-64
2021/01/07 10:36:17;;;;;;;5.30;1.22;;;;;;;7.24;70.15;97321.45;1700354;83;21196;-64
2021/01/07 10:38:48;;;;;;;62.25;27.75;;;;;;;7.29;71.17;97326.21;1700244;83;21169;-65
2021/01/07 10:41:17;;;;;;;55.67;26.52;;;;;;;7.34;71.49;97317.59;1700729;84;21184;-64
2021/01/07 10:43:47;;;;;;;18.75;9.48;;;;;;;7.36;70.89;97320.83;1700565;83;21133;-65
2021/01/07 10:46:15;;;;;;;34.15;16.07;;;;;;;7.21;66.76;97324.79;1700779;83;21144;-66
2021/01/07 10:48:44;;;;;;;31.48;15.25;;;;;;;7.24;69.06;97325.33;1700558;84;21208;-65
2021/01/07 10:51:13;;;;;;;5.87;3.92;;;;;;;7.24;67.79;97327.91;1700502;84;21597;-65
2021/01/07 10:54:12;;;;;;;1.47;0.70;;;;;;;7.08;67.36;97320.72;1700223;84;21172;-66
2021/01/07 10:57:25;;;;;;;1.82;0.90;;;;;;;6.96;69.44;97324.41;1705724;83;21173;-65
2021/01/07 11:03:48;;;;;;;1.75;1.15;;;;;;;7.11;70.22;97332.09;1678976;84;21164;-63
2021/01/07 11:06:20;;;;;;;0.80;0.65;;;;;;;7.20;70.09;97338.17;1654950;85;21591;-63
2021/01/07 11:09:02;;;;;;;1.37;0.70;;;;;;;7.27;69.12;97334.12;1716078;82;21206;-68
2021/01/07 11:11:35;;;;;;;17.32;1.10;;;;;;;7.36;68.54;97330.69;1716215;82;21175;-69
2021/01/07 11:14:08;;;;;;;1.42;0.80;;;;;;;7.50;69.25;97323.00;1676578;84;21137;-67
2021/01/07 11:16:53;;;;;;;1.22;0.90;;;;;;;7.61;68.74;97317.67;1716121;82;21183;-67
2021/01/07 11:19:24;;;;;;;2.60;1.20;;;;;;;7.67;68.13;97314.52;1716175;82;21575;-67
2021/01/07 11:22:12;;;;;;;3.10;1.07;;;;;;;7.68;66.86;97312.27;1716286;82;21172;-69
2021/01/07 11:24:42;;;;;;;1.27;0.82;;;;;;;7.64;65.39;97301.88;1710600;82;21658;-68
2021/01/07 11:27:11;;;;;;;2.30;1.22;;;;;;;7.59;65.62;97301.00;1679039;85;21542;-68
2021/01/07 11:30:01;;;;;;;1.55;0.90;;;;;;;7.57;66.02;97302.11;1678894;84;21579;-68
2021/01/07 11:32:30;;;;;;;1.17;0.90;;;;;;;7.57;65.82;97308.56;1657869;86;21658;-68
2021/01/07 11:35:00;;;;;;;2.12;1.20;;;;;;;7.57;66.14;97305.52;1654228;86;21221;-69
2021/01/07 11:37:54;;;;;;;2.52;1.50;;;;;;;7.58;65.94;97309.73;1647483;86;21186;-68
2021/01/07 11:40:33;;;;;;;7.65;3.85;;;;;;;7.52;66.15;97301.70;1647525;86;21563;-68
2021/01/07 11:46:20;;;;;;;6.85;3.20;;;;;;;7.42;65.38;97305.61;1660116;84;21247;-69
2021/01/07 11:49:02;;;;;;;51.13;20.20;;;;;;;7.43;66.39;97311.09;1688049;84;21588;-71
2021/01/07 11:51:30;;;;;;;54.25;22.93;;;;;;;7.46;66.66;97317.77;1687667;84;21215;-70
2021/01/07 11:54:02;;;;;;;25.60;10.30;;;;;;;7.46;66.50;97313.89;1687597;84;21180;-69
2021/01/07 11:56:33;;;;;;;2.70;1.82;;;;;;;7.51;67.42;97315.56;1694698;83;21589;-69
2021/01/07 11:59:02;;;;;;;2.50;1.40;;;;;;;7.49;66.44;97316.20;1712451;83;21155;-69
2021/01/07 12:01:37;;;;;;;4.22;1.70;;;;;;;7.26;65.39;97320.04;1712240;83;21158;-70
2021/01/07 12:04:14;;;;;;;37.85;17.10;;;;;;;7.22;66.10;97310.94;1712536;84;21591;-71
2021/01/07 12:07:11;;;;;;;32.30;14.75;;;;;;;7.30;67.85;97323.50;1712416;84;21147;-68
2021/01/07 12:09:43;;;;;;;6.67;2.33;;;;;;;7.29;66.91;97314.12;1686249;84;21175;-69
2021/01/07 12:14:56;;;;;;;4.67;2.25;;;;;;;7.03;69.28;97325.97;1656990;86;21166;-70
2021/01/07 12:17:24;;;;;;;5.30;2.37;;;;;;;7.08;69.54;97336.20;1690627;84;21187;-69
2021/01/07 12:19:56;;;;;;;6.45;1.80;;;;;;;7.10;68.99;97330.45;1696086;84;21654;-69
2021/01/07 12:25:29;;;;;;;3.83;1.77;;;;;;;6.95;69.12;97335.68;1632703;87;21204;-69
2021/01/07 12:27:58;;;;;;;2.87;1.65;;;;;;;6.93;68.86;97338.86;1712205;84;21150;-68